Time;durP1;ratioP1;P1;durP2;ratioP2;P2;SDS_P1;SDS_P2;PMS_P1;PMS_P2;Temp;Humidity;BMP_temperature;BMP_pressure;BME280_temperature;BME280_humidity;BME280_pressure;Samples;Min_cycle;Max_cycle;Signal;HPM_P1;HPM_P2
2023/11/12 00:01:47;;;;;;;7.23;7.13;;;3.80;99.90;;;;;;5013732;28;20800;-71
2023/11/12 00:04:14;;;;;;;6.90;6.80;;;3.70;99.90;;;;;;5023633;28;20486;-70
2023/11/12 00:06:42;;;;;;;6.63;6.53;;;3.70;99.90;;;;;;5023493;28;20468;-70
2023/11/12 00:09:10;;;;;;;7.10;7.00;;;3.60;99.90;;;;;;5037331;27;20933;-71
2023/11/12 00:11:38;;;;;;;6.67;6.57;;;3.40;99.90;;;;;;5013631;28;20565;-70
2023/11/12 00:14:06;;;;;;;7.30;7.20;;;3.30;99.90;;;;;;5060061;27;20449;-71
2023/11/12 00:16:34;;;;;;;7.70;7.60;;;3.10;99.90;;;;;;5027586;28;20461;-71
2023/11/12 00:19:04;;;;;;;7.93;7.83;;;3.10;99.90;;;;;;5011143;28;20471;-70
2023/11/12 00:21:32;;;;;;;8.20;8.10;;;3.00;99.90;;;;;;5021727;28;20576;-72
2023/11/12 00:23:58;;;;;;;9.20;9.00;;;2.90;99.90;;;;;;5019325;28;20465;-72
2023/11/12 00:26:28;;;;;;;9.30;9.10;;;2.80;99.90;;;;;;5018658;28;20465;-72
2023/11/12 00:28:55;;;;;;;10.00;9.80;;;2.80;99.90;;;;;;5020201;28;20724;-70
2023/11/12 00:31:23;;;;;;;9.00;8.90;;;2.70;99.90;;;;;;5027534;28;20551;-72
2023/11/12 00:33:51;;;;;;;7.60;7.50;;;2.90;99.90;;;;;;5023188;28;20447;-72
2023/11/12 00:36:21;;;;;;;8.23;8.13;;;3.00;99.90;;;;;;5016817;28;20561;-73
2023/11/12 00:38:48;;;;;;;7.80;7.70;;;3.10;99.90;;;;;;5018665;28;20868;-72
2023/11/12 00:41:18;;;;;;;8.00;7.90;;;3.00;99.90;;;;;;5024309;28;20893;-69
2023/11/12 00:43:45;;;;;;;7.20;7.10;;;3.10;99.90;;;;;;5026413;28;20454;-70
2023/11/12 00:46:12;;;;;;;7.27;7.17;;;3.10;99.90;;;;;;5025704;28;20841;-72
2023/11/12 00:48:39;;;;;;;8.27;8.17;;;3.20;99.90;;;;;;5018183;28;20463;-72
2023/11/12 00:51:06;;;;;;;7.10;7.00;;;3.20;99.90;;;;;;5018289;28;20489;-71
2023/11/12 00:53:34;;;;;;;7.30;7.20;;;3.30;99.90;;;;;;5014108;28;20480;-71
2023/11/12 00:56:01;;;;;;;6.83;6.73;;;3.30;99.90;;;;;;5016111;28;20462;-71
2023/11/12 00:58:28;;;;;;;7.47;7.37;;;3.40;99.90;;;;;;5025195;28;20461;-72
2023/11/12 01:00:55;;;;;;;7.20;7.10;;;3.40;99.90;;;;;;5027028;28;20486;-73
2023/11/12 01:03:22;;;;;;;7.13;7.03;;;3.50;99.90;;;;;;5026741;28;20938;-70
2023/11/12 01:05:52;;;;;;;6.67;6.57;;;3.50;99.90;;;;;;5023028;28;20465;-72
2023/11/12 01:08:19;;;;;;;7.27;7.17;;;3.50;99.90;;;;;;5013864;28;20462;-72
2023/11/12 01:10:47;;;;;;;6.93;6.83;;;3.40;99.90;;;;;;5056445;27;20467;-73
2023/11/12 01:13:14;;;;;;;7.00;6.90;;;3.40;99.90;;;;;;5047665;27;20464;-72
2023/11/12 01:15:42;;;;;;;6.70;6.60;;;3.40;99.90;;;;;;5026674;28;20575;-69
2023/11/12 01:18:09;;;;;;;7.37;7.27;;;3.40;99.90;;;;;;5025533;28;20458;-72
2023/11/12 01:20:37;;;;;;;7.40;7.30;;;3.30;99.90;;;;;;5008971;28;20531;-70
2023/11/12 01:23:04;;;;;;;7.80;7.70;;;3.20;99.90;;;;;;5017813;28;20472;-72
2023/11/12 01:25:32;;;;;;;8.60;8.50;;;3.10;99.90;;;;;;5016592;28;20508;-70
2023/11/12 01:28:02;;;;;;;8.00;7.90;;;3.00;99.90;;;;;;5024386;28;20483;-70
2023/11/12 01:30:29;;;;;;;8.63;8.53;;;2.90;99.90;;;;;;5020764;28;20947;-70
2023/11/12 01:32:56;;;;;;;8.50;8.40;;;2.80;99.90;;;;;;5017487;28;20600;-72
2023/11/12 01:35:23;;;;;;;8.90;8.80;;;2.80;99.90;;;;;;5021449;28;20561;-72
2023/11/12 01:37:50;;;;;;;8.07;7.97;;;2.80;99.90;;;;;;5016080;28;20867;-71
2023/11/12 01:40:17;;;;;;;8.50;8.40;;;2.80;99.90;;;;;;5024747;28;20685;-70
2023/11/12 01:42:45;;;;;;;9.30;9.10;;;2.70;99.90;;;;;;5021012;28;20493;-70
2023/11/12 01:45:14;;;;;;;9.40;9.20;;;2.70;99.90;;;;;;5016087;28;20502;-70
2023/11/12 01:47:44;;;;;;;8.70;8.60;;;2.70;99.90;;;;;;5012277;28;20953;-70
2023/11/12 01:50:12;;;;;;;8.97;8.87;;;2.70;99.90;;;;;;5026120;28;20451;-71
2023/11/12 01:52:39;;;;;;;9.20;9.00;;;2.70;99.90;;;;;;5017027;28;20638;-70
2023/11/12 01:55:09;;;;;;;8.23;8.13;;;2.70;99.90;;;;;;5023856;28;20461;-71
2023/11/12 01:57:38;;;;;;;8.47;8.37;;;2.70;99.90;;;;;;5018965;28;21053;-69
2023/11/12 02:00:10;;;;;;;8.37;8.27;;;2.60;99.90;;;;;;5013271;28;20523;-70
2023/11/12 02:02:39;;;;;;;8.87;8.77;;;2.60;99.90;;;;;;5021942;28;20853;-71
2023/11/12 02:05:08;;;;;;;9.20;9.00;;;2.60;99.90;;;;;;5025942;28;20476;-72
2023/11/12 02:07:36;;;;;;;8.47;8.37;;;2.60;99.90;;;;;;5024496;28;20479;-70
2023/11/12 02:10:09;;;;;;;8.80;8.70;;;2.60;99.90;;;;;;5029416;27;20575;-71
2023/11/12 02:12:38;;;;;;;8.17;8.07;;;2.60;99.90;;;;;;5011502;28;20477;-70
2023/11/12 02:15:07;;;;;;;8.67;8.57;;;2.60;99.90;;;;;;5021354;28;20470;-71
2023/11/12 02:17:35;;;;;;;9.00;8.90;;;2.60;99.90;;;;;;5022873;28;20954;-69
2023/11/12 02:20:08;;;;;;;8.57;8.47;;;2.60;99.90;;;;;;5021944;28;20465;-70
2023/11/12 02:22:35;;;;;;;9.30;9.10;;;2.60;99.90;;;;;;5021191;28;20472;-69
2023/11/12 02:25:05;;;;;;;9.27;9.07;;;2.60;99.90;;;;;;5010891;28;20471;-70
2023/11/12 02:27:32;;;;;;;8.57;8.47;;;2.70;99.90;;;;;;5016021;28;20942;-69
2023/11/12 02:30:00;;;;;;;8.63;8.53;;;2.80;99.90;;;;;;5025423;28;20468;-70
2023/11/12 02:32:30;;;;;;;9.00;8.90;;;2.80;99.90;;;;;;5025430;28;20461;-71
2023/11/12 02:34:58;;;;;;;8.70;8.60;;;2.90;99.90;;;;;;5019399;28;21314;-68
2023/11/12 02:37:25;;;;;;;9.00;8.90;;;3.10;99.90;;;;;;5021348;28;20516;-71
2023/11/12 02:39:53;;;;;;;8.27;8.17;;;3.20;99.90;;;;;;5016550;28;20455;-71
2023/11/12 02:42:23;;;;;;;8.90;8.80;;;3.40;99.90;;;;;;5018906;28;20501;-69
2023/11/12 02:44:50;;;;;;;8.57;8.47;;;3.50;99.90;;;;;;5020176;28;20988;-70
2023/11/12 02:47:18;;;;;;;8.60;8.50;;;3.60;99.90;;;;;;5025205;28;20451;-71
2023/11/12 02:50:03;;;;;;;8.70;8.60;;;3.70;99.90;;;;;;5023785;28;20528;-71
2023/11/12 02:52:30;;;;;;;8.47;8.37;;;3.80;99.90;;;;;;5017929;28;20505;-70
2023/11/12 02:54:57;;;;;;;9.00;8.90;;;3.90;99.90;;;;;;5015626;28;20457;-71
2023/11/12 02:57:26;;;;;;;9.57;9.37;;;4.00;99.90;;;;;;5013675;28;20465;-71
2023/11/12 02:59:54;;;;;;;9.87;9.67;;;4.10;99.90;;;;;;5020424;28;20587;-72
2023/11/12 03:02:22;;;;;;;9.37;9.17;;;4.10;99.90;;;;;;5025130;28;20575;-72
2023/11/12 03:04:49;;;;;;;8.87;8.77;;;4.10;99.90;;;;;;5009968;28;21069;-71
2023/11/12 03:07:18;;;;;;;9.27;9.07;;;4.10;99.90;;;;;;5020260;28;20471;-71
2023/11/12 03:09:45;;;;;;;8.97;8.87;;;4.00;99.90;;;;;;5076265;27;20477;-71
2023/11/12 03:12:12;;;;;;;9.90;9.70;;;4.00;99.90;;;;;;5024411;28;20476;-68
2023/11/12 03:14:43;;;;;;;9.57;9.37;;;3.90;99.90;;;;;;5020538;28;20790;-68
2023/11/12 03:17:10;;;;;;;9.30;9.10;;;3.80;99.90;;;;;;5025175;28;20494;-70
2023/11/12 03:19:38;;;;;;;10.30;10.10;;;3.70;99.90;;;;;;5011994;28;20470;-71
2023/11/12 03:22:05;;;;;;;10.10;9.90;;;3.70;99.90;;;;;;5018783;28;20488;-71
2023/11/12 03:24:32;;;;;;;10.40;10.20;;;3.60;99.90;;;;;;5020967;28;21185;-69
2023/11/12 03:26:59;;;;;;;10.00;9.80;;;3.50;99.90;;;;;;5020411;28;20456;-71
2023/11/12 03:29:26;;;;;;;9.93;9.73;;;3.50;99.90;;;;;;5019932;28;20490;-70
2023/11/12 03:31:55;;;;;;;10.20;10.00;;;3.40;99.90;;;;;;5016085;28;20494;-71
2023/11/12 03:34:24;;;;;;;10.50;10.30;;;3.40;99.90;;;;;;5022184;28;20470;-72
2023/11/12 03:36:51;;;;;;;10.77;10.57;;;3.30;99.90;;;;;;5013535;28;20463;-71
2023/11/12 03:39:18;;;;;;;11.10;10.90;;;3.30;99.90;;;;;;5012608;28;20475;-71
2023/11/12 03:41:45;;;;;;;10.67;10.47;;;3.30;99.90;;;;;;5024406;28;20633;-69
2023/11/12 03:44:12;;;;;;;11.00;10.80;;;3.20;99.90;;;;;;5023916;28;21013;-70
2023/11/12 03:46:38;;;;;;;10.73;10.53;;;3.20;99.90;;;;;;5022138;28;20950;-70
2023/11/12 03:49:07;;;;;;;11.00;10.80;;;3.20;99.90;;;;;;5028040;28;20487;-72
2023/11/12 03:51:35;;;;;;;11.10;10.87;;;3.10;99.90;;;;;;5023571;28;20488;-72
2023/11/12 03:54:02;;;;;;;10.90;10.70;;;3.10;99.90;;;;;;5028654;28;20458;-72
2023/11/12 03:56:29;;;;;;;11.40;11.10;;;3.00;99.90;;;;;;5014529;28;20470;-70
2023/11/12 03:58:58;;;;;;;11.37;11.07;;;3.00;99.90;;;;;;5025189;28;20843;-72
2023/11/12 04:01:25;;;;;;;11.20;10.90;;;3.00;99.90;;;;;;5028639;28;20790;-70
2023/11/12 04:03:53;;;;;;;11.33;11.03;;;3.00;99.90;;;;;;5017236;28;20878;-70
2023/11/12 04:06:21;;;;;;;12.03;11.73;;;3.00;99.90;;;;;;5024236;28;20467;-70
2023/11/12 04:08:48;;;;;;;11.70;11.40;;;2.90;99.90;;;;;;5023083;28;20462;-72
2023/11/12 04:11:15;;;;;;;11.03;10.83;;;2.80;99.90;;;;;;5019993;28;20475;-71
2023/11/12 04:13:41;;;;;;;11.60;11.30;;;2.80;99.90;;;;;;5021592;27;20469;-70
2023/11/12 04:16:09;;;;;;;11.60;11.30;;;2.80;99.90;;;;;;5027659;28;20463;-72
2023/11/12 04:18:36;;;;;;;11.50;11.20;;;2.70;99.90;;;;;;5026221;28;20543;-72
2023/11/12 04:21:06;;;;;;;11.53;11.23;;;2.70;99.90;;;;;;5012711;28;20566;-72
2023/11/12 04:23:34;;;;;;;11.70;11.40;;;2.50;99.90;;;;;;5015323;28;20514;-69
2023/11/12 04:26:02;;;;;;;11.87;11.57;;;2.50;99.90;;;;;;5018032;28;20474;-70
2023/11/12 04:28:29;;;;;;;12.10;11.80;;;2.50;99.90;;;;;;5027426;28;20457;-70
2023/11/12 04:30:56;;;;;;;11.37;11.07;;;2.50;99.90;;;;;;5011760;28;20480;-69
2023/11/12 04:33:23;;;;;;;11.60;11.30;;;2.50;99.90;;;;;;5022567;28;20462;-69
2023/11/12 04:35:49;;;;;;;11.83;11.53;;;2.50;99.90;;;;;;5018133;28;20479;-70
2023/11/12 04:38:16;;;;;;;11.77;11.47;;;2.40;99.90;;;;;;5027208;28;20473;-69
2023/11/12 04:40:46;;;;;;;11.80;11.50;;;2.40;99.90;;;;;;5024245;28;20455;-71
2023/11/12 04:43:15;;;;;;;11.73;11.43;;;2.30;99.90;;;;;;5013294;28;20956;-70
2023/11/12 04:45:44;;;;;;;11.90;11.60;;;2.20;99.90;;;;;;5027163;28;20485;-70
2023/11/12 04:48:11;;;;;;;11.70;11.40;;;2.20;99.90;;;;;;5016996;28;20471;-71
2023/11/12 04:50:39;;;;;;;11.97;11.67;;;2.10;99.90;;;;;;5016403;28;20565;-69
2023/11/12 04:53:06;;;;;;;11.47;11.17;;;2.10;99.90;;;;;;5019598;28;20474;-69
2023/11/12 04:55:33;;;;;;;12.50;12.20;;;2.10;99.90;;;;;;5023441;28;20838;-71
2023/11/12 04:58:04;;;;;;;12.50;12.20;;;2.00;99.90;;;;;;5019021;28;21120;-69
2023/11/12 05:00:31;;;;;;;12.70;12.30;;;2.00;99.90;;;;;;5015404;28;20572;-70
2023/11/12 05:02:58;;;;;;;12.43;12.13;;;2.00;99.90;;;;;;5017044;28;20504;-72
2023/11/12 05:05:25;;;;;;;12.23;11.93;;;2.00;99.90;;;;;;5018572;28;20822;-71
2023/11/12 05:07:52;;;;;;;12.73;12.43;;;2.00;99.90;;;;;;5021581;28;20854;-71
2023/11/12 05:10:19;;;;;;;13.30;12.90;;;1.90;99.90;;;;;;5024290;28;20450;-71
2023/11/12 05:12:46;;;;;;;12.50;12.20;;;1.70;99.90;;;;;;5011331;28;20499;-69
2023/11/12 05:15:15;;;;;;;11.97;11.67;;;1.50;99.90;;;;;;5019106;28;20464;-70
2023/11/12 05:17:41;;;;;;;12.00;11.70;;;1.40;99.90;;;;;;5018283;28;20473;-71
2023/11/12 05:20:09;;;;;;;13.00;12.60;;;1.20;99.90;;;;;;5017246;28;20459;-71
2023/11/12 05:22:37;;;;;;;13.10;12.70;;;1.10;99.90;;;;;;5023080;28;20500;-71
2023/11/12 05:25:05;;;;;;;13.30;12.90;;;1.00;99.90;;;;;;5021146;28;20470;-70
2023/11/12 05:27:34;;;;;;;12.67;12.37;;;1.10;99.90;;;;;;5009773;28;20463;-71
2023/11/12 05:30:01;;;;;;;12.40;12.10;;;1.00;99.90;;;;;;5017948;28;20473;-71
2023/11/12 05:32:31;;;;;;;12.60;12.30;;;1.00;99.90;;;;;;5023469;28;20462;-70
2023/11/12 05:34:58;;;;;;;13.23;12.83;;;1.00;99.90;;;;;;5015278;28;20469;-70
2023/11/12 05:37:25;;;;;;;13.20;12.80;;;0.90;99.90;;;;;;5018996;28;20460;-70
2023/11/12 05:39:52;;;;;;;13.50;13.10;;;0.80;99.90;;;;;;5011423;28;20460;-70
2023/11/12 05:42:19;;;;;;;13.90;13.50;;;0.70;99.90;;;;;;5015291;28;20514;-72
2023/11/12 05:44:45;;;;;;;14.00;13.60;;;0.60;99.90;;;;;;5012199;28;20495;-72
2023/11/12 05:47:14;;;;;;;14.03;13.63;;;0.70;99.90;;;;;;5007082;28;20548;-70
2023/11/12 05:49:43;;;;;;;14.30;13.80;;;0.70;99.90;;;;;;5018943;28;20467;-71
2023/11/12 05:52:11;;;;;;;13.63;13.23;;;0.80;99.90;;;;;;5020963;28;20623;-71
2023/11/12 05:54:38;;;;;;;13.63;13.23;;;0.90;99.90;;;;;;5015772;28;20477;-71
2023/11/12 05:57:05;;;;;;;13.60;13.20;;;0.90;99.90;;;;;;5018008;28;21437;-72
2023/11/12 05:59:31;;;;;;;14.60;14.10;;;0.80;99.90;;;;;;5014803;28;20474;-71
2023/11/12 06:01:58;;;;;;;13.87;13.47;;;0.90;99.90;;;;;;5022138;28;21036;-72
2023/11/12 06:04:25;;;;;;;13.70;13.30;;;0.90;99.90;;;;;;5016170;28;20476;-72
2023/11/12 06:06:53;;;;;;;13.50;13.10;;;1.00;99.90;;;;;;5018584;28;20959;-72
2023/11/12 06:09:20;;;;;;;13.90;13.50;;;1.00;99.90;;;;;;5048028;27;20841;-69
2023/11/12 06:11:48;;;;;;;13.30;12.90;;;1.00;99.90;;;;;;5019578;28;20467;-71
2023/11/12 06:14:15;;;;;;;14.33;13.87;;;1.00;99.90;;;;;;5055534;27;20506;-73
2023/11/12 06:16:41;;;;;;;13.80;13.40;;;1.00;99.90;;;;;;5008814;28;20469;-69
2023/11/12 06:19:09;;;;;;;13.43;13.03;;;1.00;99.90;;;;;;5020955;28;20465;-73
2023/11/12 06:21:35;;;;;;;13.77;13.37;;;1.00;99.90;;;;;;5024728;28;20468;-72
2023/11/12 06:24:06;;;;;;;13.80;13.40;;;1.00;99.90;;;;;;5019533;28;20470;-71
2023/11/12 06:26:34;;;;;;;13.57;13.17;;;1.00;99.90;;;;;;5025337;28;20572;-70
2023/11/12 06:29:00;;;;;;;13.13;12.73;;;1.10;99.90;;;;;;5016798;28;20493;-72
2023/11/12 06:31:27;;;;;;;13.37;12.97;;;1.10;99.90;;;;;;5015589;28;20899;-71
2023/11/12 06:33:54;;;;;;;13.77;13.37;;;1.20;99.90;;;;;;5021016;28;20538;-72
2023/11/12 06:36:21;;;;;;;13.23;12.83;;;1.10;99.90;;;;;;5019954;28;20467;-72
2023/11/12 06:38:48;;;;;;;13.33;12.93;;;1.10;99.90;;;;;;5011801;28;20964;-71
2023/11/12 06:41:16;;;;;;;14.00;13.60;;;1.10;99.90;;;;;;5024202;28;20461;-73
2023/11/12 06:43:43;;;;;;;13.50;13.10;;;1.20;99.90;;;;;;5018350;28;20457;-73
2023/11/12 06:46:10;;;;;;;12.97;12.57;;;1.20;99.90;;;;;;5019790;28;20469;-71
2023/11/12 06:48:37;;;;;;;12.87;12.47;;;1.10;99.90;;;;;;5007266;28;20898;-74
2023/11/12 06:51:04;;;;;;;12.60;12.20;;;1.00;99.90;;;;;;5018422;28;20483;-74
2023/11/12 06:53:31;;;;;;;12.17;11.87;;;1.00;99.90;;;;;;5025314;27;20489;-72
2023/11/12 06:55:58;;;;;;;11.53;11.23;;;0.90;99.90;;;;;;5019862;28;20517;-72
2023/11/12 06:58:26;;;;;;;11.37;11.07;;;0.80;99.90;;;;;;5014959;28;20821;-71
2023/11/12 07:00:53;;;;;;;11.87;11.57;;;0.80;99.90;;;;;;5020380;28;20461;-72
2023/11/12 07:03:20;;;;;;;11.30;11.00;;;0.80;99.90;;;;;;5013916;28;20473;-71
2023/11/12 07:05:47;;;;;;;10.80;10.60;;;0.80;99.90;;;;;;5021455;28;20798;-72
2023/11/12 07:08:15;;;;;;;11.37;11.07;;;0.80;99.90;;;;;;5022365;28;21049;-71
2023/11/12 07:10:41;;;;;;;10.80;10.60;;;0.80;99.90;;;;;;5036184;28;20461;-72
2023/11/12 07:13:09;;;;;;;11.77;11.47;;;0.70;99.90;;;;;;5018464;28;20490;-73
2023/11/12 07:15:37;;;;;;;11.20;10.90;;;0.70;99.90;;;;;;5025037;28;20465;-72
2023/11/12 07:18:04;;;;;;;11.97;11.67;;;0.70;99.90;;;;;;5057913;27;20461;-73
2023/11/12 07:20:32;;;;;;;11.90;11.60;;;0.70;99.90;;;;;;5041352;28;20893;-72
2023/11/12 07:23:01;;;;;;;11.27;10.97;;;0.70;99.90;;;;;;5032274;28;20496;-71
2023/11/12 07:25:28;;;;;;;11.50;11.20;;;0.80;99.90;;;;;;5043029;28;20560;-72
2023/11/12 07:27:55;;;;;;;11.70;11.40;;;0.80;99.90;;;;;;5040210;28;20488;-71
2023/11/12 07:30:22;;;;;;;11.43;11.13;;;0.80;99.90;;;;;;5033687;28;20473;-71
2023/11/12 07:32:50;;;;;;;10.87;10.67;;;0.80;99.90;;;;;;5038811;28;20488;-70
2023/11/12 07:35:17;;;;;;;11.30;11.00;;;0.90;99.90;;;;;;5043029;28;20889;-70
2023/11/12 07:37:44;;;;;;;11.93;11.63;;;0.90;99.90;;;;;;5047217;28;20475;-71
2023/11/12 07:40:15;;;;;;;12.20;11.90;;;1.00;99.90;;;;;;5047847;28;20582;-71
2023/11/12 07:42:42;;;;;;;11.47;11.17;;;1.00;99.90;;;;;;5066977;28;20458;-71
2023/11/12 07:45:11;;;;;;;12.30;12.00;;;1.10;99.90;;;;;;5027789;27;20485;-70
2023/11/12 07:47:38;;;;;;;12.33;12.03;;;1.10;99.90;;;;;;5054798;28;20472;-71
2023/11/12 07:50:08;;;;;;;13.63;13.23;;;1.20;99.90;;;;;;5058884;28;20495;-70
2023/11/12 07:52:37;;;;;;;13.67;13.27;;;1.30;99.90;;;;;;5052402;28;20495;-71
2023/11/12 07:55:05;;;;;;;13.10;12.80;;;1.40;99.90;;;;;;5046335;28;20697;-70
2023/11/12 07:57:33;;;;;;;12.70;12.40;;;1.60;99.90;;;;;;5050049;27;20560;-71
2023/11/12 08:00:00;;;;;;;13.50;13.10;;;1.70;99.90;;;;;;5032979;28;20473;-69
2023/11/12 08:02:28;;;;;;;13.30;12.90;;;1.80;99.90;;;;;;5053469;28;20482;-70
2023/11/12 08:04:55;;;;;;;14.03;13.63;;;1.80;99.90;;;;;;5037586;28;20461;-69
2023/11/12 08:07:23;;;;;;;13.30;12.90;;;1.90;99.90;;;;;;5065909;28;20511;-69
2023/11/12 08:09:50;;;;;;;13.30;12.90;;;2.10;99.90;;;;;;5045244;28;20961;-69
2023/11/12 08:12:17;;;;;;;12.30;12.00;;;2.20;99.90;;;;;;5042897;28;20498;-70
2023/11/12 08:14:44;;;;;;;12.73;12.43;;;2.30;99.90;;;;;;5005671;28;21064;-70
2023/11/12 08:17:12;;;;;;;12.27;11.97;;;2.40;99.90;;;;;;5005349;28;20476;-70
2023/11/12 08:19:38;;;;;;;13.30;12.90;;;2.50;99.90;;;;;;5013974;28;20462;-70
2023/11/12 08:22:05;;;;;;;12.90;12.60;;;2.60;99.90;;;;;;5024057;28;20457;-70
2023/11/12 08:24:33;;;;;;;12.43;12.13;;;2.80;99.90;;;;;;5018427;28;20471;-70
2023/11/12 08:27:02;;;;;;;11.43;11.13;;;2.90;99.90;;;;;;5011425;28;20470;-70
2023/11/12 08:29:31;;;;;;;10.90;10.70;;;3.00;99.90;;;;;;5011522;28;20474;-70
2023/11/12 08:31:59;;;;;;;11.23;11.03;;;3.10;99.90;;;;;;5026127;28;20469;-70
2023/11/12 08:34:25;;;;;;;11.50;11.20;;;3.20;99.90;;;;;;5024326;28;20462;-69
2023/11/12 08:36:53;;;;;;;11.60;11.30;;;3.30;99.90;;;;;;5012234;28;20468;-69
2023/11/12 08:39:20;;;;;;;11.43;11.13;;;3.40;99.90;;;;;;5023733;28;20499;-70
2023/11/12 08:41:49;;;;;;;10.70;10.50;;;3.60;99.90;;;;;;5024862;28;20461;-70
2023/11/12 08:44:16;;;;;;;10.77;10.57;;;3.80;99.90;;;;;;5017121;28;20574;-69
2023/11/12 08:46:43;;;;;;;10.80;10.60;;;3.90;99.90;;;;;;5026628;28;20464;-69
2023/11/12 08:49:10;;;;;;;10.77;10.57;;;4.00;99.90;;;;;;5015013;27;20458;-70
2023/11/12 08:51:38;;;;;;;12.30;12.00;;;4.10;99.90;;;;;;5021941;28;20494;-70
2023/11/12 08:54:06;;;;;;;11.90;11.60;;;4.20;99.90;;;;;;5013223;28;20508;-70
2023/11/12 08:56:34;;;;;;;12.20;11.90;;;4.40;99.90;;;;;;5018755;28;20952;-72
2023/11/12 08:59:03;;;;;;;12.00;11.70;;;4.40;99.90;;;;;;5023898;28;20465;-69
2023/11/12 09:01:33;;;;;;;13.40;13.00;;;4.60;99.90;;;;;;5016043;28;20469;-72
2023/11/12 09:04:00;;;;;;;12.97;12.57;;;4.80;99.90;;;;;;5015595;28;20457;-70
2023/11/12 09:06:26;;;;;;;13.27;12.87;;;4.90;99.90;;;;;;5022397;28;20465;-72
2023/11/12 09:08:55;;;;;;;12.90;12.50;;;5.00;99.90;;;;;;5024692;27;20506;-69
2023/11/12 09:11:21;;;;;;;11.93;11.63;;;5.20;99.90;;;;;;5008963;28;20470;-71
2023/11/12 09:13:49;;;;;;;11.93;11.63;;;5.30;99.90;;;;;;5015617;27;20489;-70
2023/11/12 09:16:18;;;;;;;12.40;12.10;;;5.40;99.90;;;;;;5017253;28;20471;-69
2023/11/12 09:18:45;;;;;;;12.40;12.10;;;5.60;99.90;;;;;;5017652;28;20474;-69
2023/11/12 09:21:12;;;;;;;12.37;12.07;;;5.60;99.90;;;;;;5008583;28;20504;-68
2023/11/12 09:23:40;;;;;;;11.90;11.60;;;5.70;99.90;;;;;;5011952;28;20522;-70
2023/11/12 09:26:06;;;;;;;12.03;11.73;;;5.70;99.90;;;;;;5025177;28;20539;-70
2023/11/12 09:28:33;;;;;;;11.60;11.30;;;5.70;99.90;;;;;;5019516;28;20517;-69
2023/11/12 09:31:00;;;;;;;13.50;13.10;;;5.80;99.90;;;;;;5018878;27;20457;-71
2023/11/12 09:33:28;;;;;;;13.17;12.77;;;6.00;99.90;;;;;;5013223;28;20583;-71
2023/11/12 09:35:55;;;;;;;13.00;12.60;;;6.20;99.90;;;;;;5009119;28;20465;-71
2023/11/12 09:38:22;;;;;;;12.73;12.33;;;6.30;99.90;;;;;;5025884;28;20468;-71
2023/11/12 09:40:50;;;;;;;12.00;11.70;;;6.40;99.90;;;;;;5025470;27;20457;-70
2023/11/12 09:43:17;;;;;;;12.20;11.90;;;6.60;99.90;;;;;;5025721;28;20472;-70
2023/11/12 09:45:48;;;;;;;12.67;12.27;;;6.70;99.90;;;;;;5013522;27;20511;-70
2023/11/12 09:48:25;;;;;;;13.10;12.70;;;6.70;99.90;;;;;;5012387;28;20531;-70
2023/11/12 09:50:54;;;;;;;14.07;13.57;;;6.90;99.90;;;;;;5026143;28;20516;-71
2023/11/12 09:53:21;;;;;;;13.10;12.70;;;7.00;99.90;;;;;;5021281;28;20583;-71
2023/11/12 09:55:48;;;;;;;12.90;12.50;;;7.00;99.90;;;;;;5013225;28;20462;-70
2023/11/12 09:58:16;;;;;;;14.03;13.53;;;7.10;99.90;;;;;;5021683;28;20465;-71
2023/11/12 10:00:46;;;;;;;13.60;13.20;;;7.30;99.90;;;;;;5020449;28;20470;-73
2023/11/12 10:03:13;;;;;;;14.03;13.53;;;7.30;99.90;;;;;;5014084;28;20458;-69
2023/11/12 10:05:40;;;;;;;13.50;13.10;;;7.30;99.90;;;;;;5017446;27;20472;-69
2023/11/12 10:08:08;;;;;;;12.93;12.53;;;7.40;99.90;;;;;;5023947;28;20468;-70
2023/11/12 10:10:36;;;;;;;13.80;13.40;;;7.50;99.90;;;;;;5046300;27;20461;-70
2023/11/12 10:13:05;;;;;;;12.77;12.37;;;7.50;99.90;;;;;;5045559;27;20492;-70
2023/11/12 10:15:34;;;;;;;13.73;13.33;;;7.60;99.90;;;;;;5025775;28;20489;-71
2023/11/12 10:18:02;;;;;;;13.70;13.30;;;7.70;99.90;;;;;;5009742;28;20900;-70
2023/11/12 10:20:30;;;;;;;14.30;13.80;;;7.70;99.90;;;;;;5016408;28;20957;-71
2023/11/12 10:22:57;;;;;;;14.53;14.03;;;7.70;99.90;;;;;;5020923;28;20657;-72
2023/11/12 10:25:41;;;;;;;14.90;14.40;;;7.80;99.90;;;;;;5015502;28;20465;-70
2023/11/12 10:28:09;;;;;;;14.20;13.70;;;8.00;99.90;;;;;;5015539;28;20952;-71
2023/11/12 10:30:37;;;;;;;14.50;14.00;;;8.00;99.90;;;;;;5019599;27;20462;-73
2023/11/12 10:33:15;;;;;;;12.70;12.30;;;8.00;99.90;;;;;;5024844;28;20491;-69
2023/11/12 10:35:42;;;;;;;11.33;11.03;;;8.40;99.90;;;;;;5020142;28;20465;-70
2023/11/12 10:38:10;;;;;;;11.17;10.87;;;8.90;99.90;;;;;;5020697;28;20469;-69
2023/11/12 10:40:38;;;;;;;11.93;11.63;;;9.40;99.90;;;;;;5025543;28;20454;-71
2023/11/12 10:43:08;;;;;;;11.67;11.37;;;9.80;99.90;;;;;;5017039;28;20468;-71
2023/11/12 10:45:36;;;;;;;11.10;10.80;;;10.20;99.90;;;;;;5016712;28;20514;-72
2023/11/12 10:48:05;;;;;;;12.47;12.17;;;10.30;99.90;;;;;;5013979;28;20473;-71
2023/11/12 10:50:32;;;;;;;11.70;11.40;;;10.30;99.90;;;;;;5018244;28;20477;-71
2023/11/12 10:53:01;;;;;;;11.77;11.47;;;10.20;99.90;;;;;;5024434;28;20824;-72
2023/11/12 10:55:29;;;;;;;12.90;12.50;;;10.10;99.90;;;;;;5021575;28;20466;-71
2023/11/12 10:57:59;;;;;;;13.00;12.60;;;10.00;99.90;;;;;;5007408;28;20965;-71
2023/11/12 11:00:27;;;;;;;12.60;12.20;;;10.20;99.90;;;;;;5021610;28;20461;-71
2023/11/12 11:02:54;;;;;;;12.70;12.30;;;10.50;99.90;;;;;;5014702;28;20920;-72
2023/11/12 11:05:24;;;;;;;12.30;11.90;;;10.60;99.90;;;;;;5022498;28;20524;-71
2023/11/12 11:07:50;;;;;;;13.10;12.70;;;10.60;99.90;;;;;;5024639;28;20457;-73
2023/11/12 11:10:17;;;;;;;12.97;12.57;;;10.50;99.90;;;;;;5020093;28;20471;-71
2023/11/12 11:12:45;;;;;;;12.40;12.00;;;10.40;99.90;;;;;;5045953;27;20465;-71
2023/11/12 11:15:47;;;;;;;13.00;12.60;;;10.60;99.90;;;;;;5025097;28;20497;-71
2023/11/12 11:18:52;;;;;;;13.53;13.10;;;10.70;99.90;;;;;;5015063;28;20492;-71
2023/11/12 11:21:20;;;;;;;13.77;13.27;;;10.60;99.90;;;;;;5024107;28;20552;-70
2023/11/12 11:23:51;;;;;;;13.47;12.97;;;10.60;99.90;;;;;;5018673;28;20753;-72
2023/11/12 11:26:38;;;;;;;13.37;12.97;;;10.80;99.90;;;;;;5023839;28;20467;-73
2023/11/12 11:29:20;;;;;;;13.53;13.03;;;10.90;99.90;;;;;;5006708;28;20875;-72
2023/11/12 11:32:18;;;;;;;14.30;13.80;;;11.00;99.90;;;;;;5016214;28;20468;-70
2023/11/12 11:34:45;;;;;;;14.43;13.93;;;10.70;99.90;;;;;;5010806;28;20924;-71
2023/11/12 11:37:12;;;;;;;14.30;13.80;;;10.70;99.90;;;;;;5024234;28;20546;-73
2023/11/12 11:39:39;;;;;;;14.20;13.70;;;10.70;99.90;;;;;;5014883;28;20482;-71
2023/11/12 11:42:13;;;;;;;14.10;13.60;;;10.70;99.90;;;;;;5029697;28;21266;-71
2023/11/12 11:44:50;;;;;;;13.80;13.40;;;10.80;99.90;;;;;;5016311;28;20834;-73
2023/11/12 11:47:20;;;;;;;13.67;13.27;;;10.70;99.90;;;;;;5011756;28;20480;-71
2023/11/12 11:49:48;;;;;;;14.07;13.57;;;10.80;99.90;;;;;;5014776;28;20468;-74
2023/11/12 11:52:20;;;;;;;13.70;13.30;;;10.80;99.90;;;;;;5023718;28;20475;-71
2023/11/12 11:54:54;;;;;;;13.63;13.23;;;10.70;99.90;;;;;;5010896;28;20485;-71
2023/11/12 11:57:24;;;;;;;14.00;13.60;;;10.80;99.90;;;;;;5009750;28;20471;-71
2023/11/12 11:59:51;;;;;;;13.87;13.47;;;10.80;99.90;;;;;;5010797;28;20464;-71
2023/11/12 12:02:21;;;;;;;13.47;13.07;;;10.80;99.90;;;;;;5023416;28;20996;-71
2023/11/12 12:04:49;;;;;;;14.03;13.60;;;10.90;99.90;;;;;;5025203;28;20482;-71
2023/11/12 12:07:22;;;;;;;13.00;12.60;;;11.00;99.90;;;;;;5025160;27;21001;-71
2023/11/12 12:09:49;;;;;;;13.13;12.73;;;11.00;99.90;;;;;;5016534;28;20467;-68
2023/11/12 12:12:16;;;;;;;12.37;12.07;;;11.00;99.90;;;;;;5036902;27;20564;-70
2023/11/12 12:14:43;;;;;;;12.27;11.97;;;11.00;99.90;;;;;;5016818;28;20989;-72
2023/11/12 12:17:10;;;;;;;12.40;12.10;;;11.10;99.90;;;;;;5027263;27;20477;-70
2023/11/12 12:19:38;;;;;;;11.77;11.47;;;11.10;99.90;;;;;;5023884;28;20463;-70
2023/11/12 12:22:05;;;;;;;11.80;11.50;;;11.00;99.90;;;;;;5021865;28;20460;-70
2023/11/12 12:24:34;;;;;;;12.90;12.50;;;11.00;99.90;;;;;;5024336;28;20946;-70
2023/11/12 12:27:04;;;;;;;12.13;11.83;;;11.20;99.90;;;;;;5026866;27;20906;-70
2023/11/12 12:29:32;;;;;;;12.53;12.23;;;11.30;99.90;;;;;;5017279;28;20994;-70
2023/11/12 12:32:12;;;;;;;12.97;12.57;;;11.20;99.90;;;;;;5026296;28;20492;-72
2023/11/12 12:34:42;;;;;;;12.73;12.33;;;11.20;99.90;;;;;;5008710;28;20530;-72
2023/11/12 12:37:09;;;;;;;12.40;12.10;;;11.30;99.90;;;;;;5021466;27;20715;-71
2023/11/12 12:39:52;;;;;;;12.83;12.43;;;11.50;99.90;;;;;;5026973;28;20466;-70
2023/11/12 12:42:20;;;;;;;12.80;12.40;;;11.60;99.90;;;;;;5027840;27;20514;-69
2023/11/12 12:44:49;;;;;;;12.33;12.03;;;11.70;99.90;;;;;;5018834;28;20856;-72
2023/11/12 12:47:29;;;;;;;12.30;12.00;;;11.80;99.90;;;;;;5011815;27;20470;-71